Photometre #853[NE_1.6_Dp] Stornoway_MO AOT

File : 20220923_853.hum

23/09/2022,07:18:56,TEMP=8.8,BA=5.72,STAT.A,ExtBa=12.40
23/09/2022,07:23:54,TEMP=8.7,BA=5.64,STAT.A,ExtBa=12.40
23/09/2022,07:29:44,TEMP=8.7,BA=5.64,STAT.A,ExtBa=12.40
23/09/2022,07:32:24,TEMP=8.9,BA=5.64,STAT.D,ExtBa=12.40
23/09/2022,07:36:24,TEMP=9.0,BA=5.64,STAT.D,ExtBa=12.40
23/09/2022,07:38:24,TEMP=9.4,BA=5.64,STAT.A,ExtBa=12.40
23/09/2022,07:44:24,TEMP=9.6,BA=5.56,STAT.D,ExtBa=12.40
23/09/2022,07:46:25,TEMP=10.1,BA=5.56,STAT.A,ExtBa=12.40
23/09/2022,07:52:24,TEMP=10.0,BA=5.72,STAT.D,ExtBa=12.40
23/09/2022,07:55:41,TEMP=10.4,BA=5.72,STAT.A,ExtBa=12.40
23/09/2022,08:00:24,TEMP=10.8,BA=5.72,STAT.D,ExtBa=12.40
23/09/2022,08:04:24,TEMP=11.1,BA=5.72,STAT.D,ExtBa=12.40
23/09/2022,08:08:24,TEMP=11.4,BA=5.72,STAT.D,ExtBa=12.40
23/09/2022,08:10:32,TEMP=11.9,BA=5.56,STAT.B,ExtBa=12.40
23/09/2022,08:20:02,TEMP=12.2,BA=5.56,STAT.A,ExtBa=12.30
23/09/2022,08:23:02,TEMP=11.9,BA=5.52,STAT.A,ExtBa=12.30
23/09/2022,08:28:24,TEMP=11.4,BA=5.52,STAT.D,ExtBa=12.30
23/09/2022,08:31:26,TEMP=11.4,BA=5.52,STAT.A,ExtBa=12.40
23/09/2022,08:36:24,TEMP=11.2,BA=5.52,STAT.D,ExtBa=12.30
23/09/2022,08:40:25,TEMP=11.3,BA=5.72,STAT.D,ExtBa=12.30
23/09/2022,08:42:25,TEMP=11.7,BA=5.72,STAT.A,ExtBa=12.30
23/09/2022,08:48:25,TEMP=11.8,BA=5.72,STAT.D,ExtBa=12.30
23/09/2022,08:52:25,TEMP=12.3,BA=5.68,STAT.D,ExtBa=12.30
23/09/2022,08:54:25,TEMP=12.8,BA=5.68,STAT.C,ExtBa=12.40
23/09/2022,09:06:07,TEMP=13.4,BA=5.48,STAT.A,ExtBa=12.30
23/09/2022,09:17:53,TEMP=12.6,BA=5.72,STAT.F,ExtBa=12.40
23/09/2022,09:32:25,TEMP=12.0,BA=5.72,STAT.D,ExtBa=12.40
23/09/2022,09:34:23,TEMP=12.2,BA=5.72,STAT.D,ExtBa=12.30
23/09/2022,09:47:52,TEMP=11.5,BA=5.72,STAT.D,ExtBa=12.40
23/09/2022,09:52:25,TEMP=11.7,BA=5.68,STAT.D,ExtBa=12.40
23/09/2022,09:56:25,TEMP=12.0,BA=5.68,STAT.D,ExtBa=12.40
23/09/2022,10:00:25,TEMP=12.4,BA=5.72,STAT.D,ExtBa=12.40
23/09/2022,10:02:52,TEMP=12.7,BA=5.72,STAT.D,ExtBa=12.30
23/09/2022,10:08:25,TEMP=12.8,BA=5.72,STAT.D,ExtBa=12.40
23/09/2022,10:12:25,TEMP=13.1,BA=5.56,STAT.D,ExtBa=12.40
23/09/2022,10:16:25,TEMP=13.2,BA=5.56,STAT.D,ExtBa=12.40
23/09/2022,10:18:29,TEMP=13.6,BA=5.56,STAT.F,ExtBa=12.30
23/09/2022,10:32:52,TEMP=13.7,BA=5.72,STAT.D,ExtBa=12.40
23/09/2022,10:36:25,TEMP=13.7,BA=5.72,STAT.D,ExtBa=12.30
23/09/2022,10:40:25,TEMP=13.7,BA=5.72,STAT.D,ExtBa=12.30
23/09/2022,10:44:25,TEMP=13.8,BA=5.72,STAT.D,ExtBa=12.30
23/09/2022,10:47:52,TEMP=14.0,BA=5.72,STAT.D,ExtBa=12.30
23/09/2022,10:52:25,TEMP=14.1,BA=5.68,STAT.D,ExtBa=12.40
23/09/2022,10:56:25,TEMP=14.5,BA=5.68,STAT.D,ExtBa=12.30
23/09/2022,11:00:25,TEMP=14.9,BA=5.72,STAT.D,ExtBa=12.30
23/09/2022,11:02:52,TEMP=14.8,BA=5.72,STAT.D,ExtBa=12.20
23/09/2022,11:16:25,TEMP=11.0,BA=5.72,STAT.D,ExtBa=12.40
23/09/2022,11:18:24,TEMP=11.2,BA=5.72,STAT.F,ExtBa=12.40
23/09/2022,11:32:25,TEMP=10.5,BA=5.72,STAT.D,ExtBa=12.40
23/09/2022,11:34:24,TEMP=11.0,BA=5.72,STAT.D,ExtBa=12.30
23/09/2022,11:47:52,TEMP=11.2,BA=5.72,STAT.D,ExtBa=12.40
23/09/2022,11:52:25,TEMP=11.4,BA=5.68,STAT.D,ExtBa=12.40
23/09/2022,11:56:25,TEMP=11.6,BA=5.68,STAT.D,ExtBa=12.40
23/09/2022,12:00:25,TEMP=11.8,BA=5.72,STAT.D,ExtBa=12.40
23/09/2022,12:02:52,TEMP=12.4,BA=5.72,STAT.D,ExtBa=12.40
23/09/2022,12:08:25,TEMP=12.7,BA=5.72,STAT.D,ExtBa=12.40
23/09/2022,12:17:54,TEMP=12.8,BA=5.68,STAT.F,ExtBa=12.40
23/09/2022,12:32:52,TEMP=13.0,BA=5.72,STAT.D,ExtBa=12.40
23/09/2022,12:44:25,TEMP=13.2,BA=5.72,STAT.D,ExtBa=12.40
23/09/2022,12:47:52,TEMP=13.4,BA=5.72,STAT.D,ExtBa=12.30
23/09/2022,13:00:25,TEMP=13.4,BA=5.72,STAT.D,ExtBa=12.40
23/09/2022,13:02:52,TEMP=13.6,BA=5.72,STAT.D,ExtBa=12.40
23/09/2022,13:16:25,TEMP=13.3,BA=5.72,STAT.D,ExtBa=12.50
23/09/2022,13:18:24,TEMP=13.6,BA=5.72,STAT.F,ExtBa=12.40
23/09/2022,13:32:25,TEMP=13.2,BA=5.72,STAT.D,ExtBa=12.50
23/09/2022,13:34:22,TEMP=13.6,BA=5.72,STAT.D,ExtBa=12.40
23/09/2022,13:47:52,TEMP=14.9,BA=5.72,STAT.D,ExtBa=12.40
23/09/2022,14:00:25,TEMP=14.7,BA=5.72,STAT.D,ExtBa=12.50
23/09/2022,14:02:52,TEMP=14.9,BA=5.72,STAT.D,ExtBa=12.40
23/09/2022,14:08:25,TEMP=14.7,BA=5.72,STAT.D,ExtBa=12.40
23/09/2022,14:17:54,TEMP=14.3,BA=5.68,STAT.F,ExtBa=12.50
23/09/2022,14:41:35,TEMP=16.8,BA=5.56,STAT.D,ExtBa=12.10
23/09/2022,14:47:52,TEMP=15.8,BA=5.56,STAT.D,ExtBa=12.30
23/09/2022,14:52:25,TEMP=15.4,BA=5.68,STAT.D,ExtBa=12.30
23/09/2022,15:02:52,TEMP=14.4,BA=5.72,STAT.D,ExtBa=12.30
23/09/2022,15:16:25,TEMP=13.9,BA=5.68,STAT.D,ExtBa=12.40
23/09/2022,15:18:24,TEMP=14.2,BA=5.68,STAT.F,ExtBa=12.30
23/09/2022,15:29:39,TEMP=14.2,BA=5.56,STAT.A,ExtBa=12.40
23/09/2022,15:32:25,TEMP=14.6,BA=5.56,STAT.D,ExtBa=12.30
23/09/2022,15:36:25,TEMP=14.4,BA=5.56,STAT.D,ExtBa=12.30
23/09/2022,15:43:14,TEMP=13.6,BA=5.68,STAT.C,ExtBa=12.40
23/09/2022,15:54:37,TEMP=12.6,BA=5.68,STAT.A,ExtBa=12.40
23/09/2022,16:00:24,TEMP=12.8,BA=5.68,STAT.D,ExtBa=12.30
23/09/2022,16:04:20,TEMP=12.7,BA=5.68,STAT.A,ExtBa=12.40
23/09/2022,16:12:44,TEMP=12.1,BA=5.68,STAT.A,ExtBa=12.40
23/09/2022,16:20:07,TEMP=11.9,BA=5.60,STAT.A,ExtBa=12.40
23/09/2022,16:24:24,TEMP=12.0,BA=5.60,STAT.D,ExtBa=12.30
23/09/2022,16:26:38,TEMP=12.3,BA=5.60,STAT.B,ExtBa=12.30
23/09/2022,16:40:05,TEMP=12.3,BA=5.56,STAT.A,ExtBa=12.40
23/09/2022,16:50:36,TEMP=12.5,BA=5.72,STAT.A,ExtBa=12.40
23/09/2022,16:56:24,TEMP=12.8,BA=5.72,STAT.D,ExtBa=12.30
23/09/2022,16:59:04,TEMP=13.0,BA=5.72,STAT.A,ExtBa=12.30
23/09/2022,17:04:24,TEMP=12.9,BA=5.60,STAT.D,ExtBa=12.30
23/09/2022,17:06:31,TEMP=13.2,BA=5.60,STAT.A,ExtBa=12.20
23/09/2022,17:11:52,TEMP=13.0,BA=5.72,STAT.A,ExtBa=12.30
23/09/2022,17:16:24,TEMP=12.9,BA=5.72,STAT.D,ExtBa=12.20
23/09/2022,17:18:25,TEMP=13.1,BA=5.72,STAT.A,ExtBa=12.20